Benedic Solidaris

LE CHALLENGE DU BRABANT WALLON

19 courses réparties sport05.gif (4991 octets) ... dans tout le Brabant Wallon

Antipode TV COM

NIVELLES

  Nom Prenom Club Categorie Temps
1 CAUDRON VINCENT JOG + M/20-29/1 14:27
2 FRANCOIS CHRISTOPHE CABW M/40-49/1 15:12
3 GUELTON GAETAN BORN TO RUN M/30-39/1 15:16
4 D AURILIO MARVIN CRAC M/15-19/1 15:23
5 SCARNIET FRANCOIS ACLO M/20-29/2 15:42
6 LEONET MARTIN   M/20-29/3 15:44
7 WEITKOWAT BAPTISTE   M/20-29/4 15:46
8 KEBIR AKLI CEPAL M/30-39/2 16:04
9 HAMICH MOHAMED   M/30-39/3 16:29
10 D AURILIO SIMEON CRAC M/20-29/5 16:41
11 BRU LOUIS   M/15-19/2 16:52
12 LIENARD PHILIPPE   M/40-49/2 17:00
13 VANCOLEN PIERRE BORN TO RUN M/15-19/3 17:18
14 LARELLE JULIAN CABW M/20-29/6 17:36
15 BASTELLEUS GUNTER   M/40-49/3 17:52
16 DE VREESE DAMIEN   M/30-39/4 17:56
17 VINCENT GREK CABW M/50-59/1 18:17
18 HUNNINCK KEN   M/30-39/5 18:25
19 VANCOLEN ELISA CS DYLE D/15-19/1 18:32
20 GERBOUX OLIVIER   M/40-49/4 19:42
21 DECOEN EDDY   M/30-39/6 20:05
22 RICHAR ELIOTT ESM M/15-19/4 20:22
23 SCHOONHEST NICOLAS   M/15-19/5 20:42
24 LAMBERT UGO   M/15-19/6 20:56
25 VANCLUYSEN REMI NAC M/20-29/7 21:02
26 CLAUDE LOUIS   M/15-19/7 21:18
27 CORDIER PHILIPPE   M/50-59/2 21:36
28 STOPPIE TABITMA JOGGERS BEERSEL D/40-49/1 21:50
29 VERCRUYSSE VERONIQUE   D/40-49/2 22:08
30 ALBERT SEBASTIEN   M/20-29/8 22:46
31 LECOIRE QUENTIN   M/30-39/7 22:47
32 DEMARETS JOEL NAC M/60-69/1 22:52
33 LEROY FRANCOIS   M/30-39/8 23:06
34 LEFEBVRE JEREMY   M/30-39/9 23:18
35 SCARNIET NICOLAS ACLO M/15-19/8 23:19
36 REYNTSENS CEDRIC   M/15-19/9 23:23
37 TASTENHOYE VICTOR   M/15-19/10 23:27
38 PARDOEN CHRISTIAN   M/50-59/3 23:30
39 HEYMANS JARI JOG BEER M/15-19/11 23:33
40 LIBOIS AXEL   M/15-19/12 23:37
41 HEYMANS JAMA JOGGERS BEERSEL D/15-19/2 23:52
42 HERCKENRATH MICHEL LEEUWERI M/50-59/4 23:53
43 THIBAUT NELSON   M/15-19/13 24:02
44 MEFA MANU   M/20-29/9 24:06
45 GUSTIN BENOIT   M/30-39/10 24:10
46 REYNTJENS CHRISTOPHE   M/40-49/5 24:11
47 MOENS MARIE   D/20-29/1 24:12
48 DAUBIOUL THIERRY   M/50-59/5 24:20
49 PETIT MONIQUE   D/50-59/1 24:24
50 CONSTANT MICHEL GAG M/50-59/6 24:31
51 TASTENHOYE LUCILE   D/15-19/3 24:37
52 BREYNE CHANTAL NAC D/50-59/2 24:48
53 MAKINTOSH PHILIPPE   M/40-49/6 24:55
54 CHAMMELAND LICA NAC D/15-19/4 25:00
55 STEVENS DAVID   M/30-39/11 25:08
56 RICHARD ROSE ESM D/15-19/5 25:14
57 DEFFRENNES FREDERIQUE JAMES D/40-49/3 25:18
58 PLATTEAU CHANTAL FLEU D/40-49/4 25:24
59 SEUTIN THEA FLEURUS M/15-19/14 25:25
60 JIMENEZ RAQUEL TOUS A BORD D/30-39/1 25:29
61 TASTENHOYE SEBASTIEN   M/40-49/7 25:39
62 DANIEL CHRISTIANE HAC D/60 &+/1 25:45
63 RENAUX CECILE   D/30-39/2 25:48
64 BOVY DANIEL NAC M/70 &+/1 25:49
65 BODSON NATHALIE CABW D/30-39/3 25:52
66 DA SILVA ISABELLE   D/40-49/5 25:55
67 DENIES ETIENNE FURALOPE M/70 &+/2 26:00
68 GUSTIN STEPHANIE   D/20-29/2 26:05
69 GHISLAIN NICOLAS   M/30-39/12 26:07
70 ELTEN PHILIPPE   M/60-69/2 26:13
71 MOMMENS JESSY   D/20-29/3 26:20
72 DELCOIGNE PATRICK   M/40-49/8 26:22
73 THIBAUT THIERRY   M/40-49/9 26:25
74 VANTORRE LAURE CABW D/15-19/6 26:28
75 DEHUISSER NATHAN   M/15-19/15 26:32
76 PAQUE AMELYS   D/15-19/7 26:37
77 PAQUE JEREMY   M/30-39/13 26:39
78 DETRY DELPHINE   D/15-19/8 26:42
79 DECKERS MAELLE   D/15-19/9 26:56
80 CARTON MARTINE   D/15-19/10 27:07
81 RICHARD CHARLOTTE BORN TO RUN D/30-39/4 27:15
82 FRANCOTTE MICHAEL   M/30-39/14 27:18
83 CAULIEZ BRICE   M/40-49/10 27:22
84 DIELS NATHALIE   D/30-39/5 27:28
85 DELOUVROY ASTRID   D/30-39/6 27:35
86 BODART REGINE   D/40-49/6 27:36
87 PIMPURNIAUX FANNY   D/15-19/11 27:37
88 BIOT LUNA   D/20-29/4 27:38
89 FOURNAUX SYLVAIN   M/15-19/16 27:39
90 FRANCOIS LUCIE   D/15-19/12 27:40
91 BIOT CHAUMA   D/15-19/13 27:41
92 AVAU MAGDA JOGGERS BEERSEL D/60 &+/2 27:43
93 DEN HOUDYKER WILLEM JOG BEER M/60-69/3 27:45
94 GOLNIAK CEZARY   M/15-19/17 27:50
95 MORALES JUAN   M/40-49/11 27:55
96 CARTON ASTRID   D/15-19/14 27:57
97 MORALES NINA   D/15-19/15 27:59
98 LUYPAERT ODILE   D/15-19/16 28:02
99 DEPRIS OLIVIER   M/40-49/12 28:05
100 FRANCOIS ALBERT JCM M/70 &+/3 28:08
101 RIGUELLE BERNARD   M/60-69/4 28:11
102 VANDERHAEGEN CHRISTIAN HAC M/50-59/7 28:13
103 WILMOTTE PAULINE   D/30-39/7 28:14
104 SEZGIN DENIZ   D/15-19/17 28:16
105 HARDY YSALINE CS DYL.G D/15-19/18 28:17
106 CARENE JULIE   D/30-39/8 28:18
107 HENREAUX BENOIT   M/30-39/15 28:20
108 VACA GUAL MONTSERRAT   D/40-49/7 28:35
109 HAYOIT BRIGITTE JCPMF EVERE D/40-49/8 28:48
110 WILKIN CORENTIN   M/15-19/18 28:50
111 VANHECKE ASTRID   D/15-19/19 28:57
112 HENRIET CELINE   D/30-39/9 29:02
113 SEZGIN DILARA   D/15-19/20 29:04
114 MARSILY AURELIE   D/20-29/5 29:06
115 JONCKERS JEAN-PIERRE   M/50-59/8 29:10
116 DOBBELAERE JULIA ESM D/60 &+/3 29:12
117 SANCHEZ CARMEN   D/40-49/9 29:17
118 CAUDRON BERNADETTE VERTIGO D/50-59/3 29:19
119 GONZALES ELENA   D/15-19/21 29:21
120 GONZALES DANIEL   M/40-49/13 29:22
121 PENANT NATHALIE   D/50-59/4 29:28
122 SWENNE ETHAN ET ENGHIEN M/15-19/19 29:38
123 ROLAND FREDERIC   M/40-49/14 29:40
124 SWENNE DAVID ETENGHIEN M/40-49/15 29:42
125 TAMIGNEAUX ODILE   D/15-19/22 29:57
126 DE MEYER AMANDINE   D/15-19/23 30:21
127 BALDAN SOFIA   D/30-39/10 30:25
128 MELCHIOR FABIENNE   D/50-59/5 30:26
129 VAN BOGAERT AURORE   D/40-49/10 30:40
130 SAMAIN VANESSA   D/30-39/11 30:45
131 BALDAN SABRINA   D/20-29/6 30:48
132 NGUYEN KM-CHI   D/30-39/12 30:54
133 NOWAKOSKI ANNICK   D/40-49/11 31:05
134 MYAR BOCHRA   D/30-39/13 31:06
135 DRESSE DONATIENNE   D/40-49/12 31:20
136 BAUDOUX VERONIQUE   D/40-49/13 31:25
137 POELAERT BENDICTE   D/40-49/14 31:30
138 DERESE THIEERRY   M/50-59/9 31:32
139 REGHEM SOPHIE. ACLO D/40-49/15 31:36
140 GODFROID ISABELLE   D/40-49/16 31:40
141 FIRQUET FRANCOISE CABW D/60 &+/4 31:42
142 FOX NICOLAS   M/30-39/16 31:48
143 VERGOUTS SANDRINE ET ENGHIEN D/30-39/14 31:50
144 VANDEPONTSEELE SOPHIE   D/40-49/17 31:52
145 BLONDEL MARIE JEANNE LA THURE D/60 &+/5 31:55
146 LOURTIE NATHALIE   D/50-59/6 31:57
147 CHEVALIER WENDY   D/20-29/7 31:58
148 DISCART ISABELLE   D/40-49/18 31:59
149 GILLES JEAN-PIERRE   M/60-69/5 32:00
150 HEIDERSCHEID DOMINIQUE   D/40-49/19 32:13
151 CARLIER LAETITIA   D/30-39/15 32:25
152 BILLE SOPHIE JCPMF INCOURT D/20-29/8 32:27
153 MARIN JULIE   D/30-39/16 32:30
154 ZACHARIAS JEAN   M/60-69/6 32:35
155 GERARD FREDERIQUE   D/40-49/20 33:00
156 COPOIS MARIE-FRANCOISE   D/60 &+/6 33:16
157 PETRY CATHERINE CABW D/40-49/21 33:28
158 VAN UYTVANCK FRANCIS JCPMFORME M/40-49/16 33:37
159 BIEFNOT PATRICIA RUN FOR C D/50-59/7 33:50
160 DEFFRENNES FREDERIC JAMES D/40-49/22 33:55
161 ROUSSEAU ISABELLE RUN FOR C D/50-59/8 33:56
162 DE VILLE PIERRE   D/40-49/23 33:57
163 REGHEM VALENTIN ACLO M/15-19/20 33:58
163 VANDER LINDEN VERONIQUE   D/50-59/9 33:58
164 MUSTIN DIDIER   M/50-59/10 34:00
165 JANSSENS AMELIE JE COURS A INCOURT D/30-39/17 34:10
166 FRANCQ LAURENCE   D/40-49/24 34:35
167 HARCQ SALOME   D/20-29/9 35:35
168 HOELBEKE ANTOON   M/50-59/11 35:40
169 OLIVIER GUILIAN   M/15-19/21 35:41
170 DEWIGNE MURIEL JCPMF GENAPPE D/50-59/10 35:47
171 RIMBAUD KATOU   D/20-29/10 36:10
172 OLIVIER FABRICE   M/40-49/17 36:13
173 BLONDEAU ANNE-MARIE JCPMF GENAPPE D/50-59/11 36:16
174 MAMY ANNE-MICHELE   D/40-49/25 36:25
175 MIGY CAROLINE   D/20-29/11 36:50
176 DELMONDE VANESSA   D/40-49/26 37:06
177 SCHEPENS FRANÇOISE VIE LA D/50-59/12 37:10
178 SCHOONHEST SOPHIE   D/30-39/18 37:37
179 AMALIK NATHAN   M/15-19/22 38:20
179 MENDOLIA ROSALBA   D/40-49/27 38:20
180 MIGY VALERIE   D/40-49/28 38:26
181 SEL MICHEL ACLO M/70 &+/4 39:11